sensor_id;sensor_type;location;lat;lon;timestamp;temperature;humidity
11140;DHT22;5624;49.388;11.350;2022-10-31T00:00:20;11.20;99.90
11140;DHT22;5624;49.388;11.350;2022-10-31T00:02:45;11.20;99.90
11140;DHT22;5624;49.388;11.350;2022-10-31T00:05:11;11.10;99.90
11140;DHT22;5624;49.388;11.350;2022-10-31T00:07:37;11.10;99.90
11140;DHT22;5624;49.388;11.350;2022-10-31T00:10:02;11.00;99.90
11140;DHT22;5624;49.388;11.350;2022-10-31T00:12:28;11.00;99.90
11140;DHT22;5624;49.388;11.350;2022-10-31T00:14:54;10.90;99.90
11140;DHT22;5624;49.388;11.350;2022-10-31T00:17:19;10.80;99.90
11140;DHT22;5624;49.388;11.350;2022-10-31T00:19:45;10.80;99.90
11140;DHT22;5624;49.388;11.350;2022-10-31T00:22:11;10.80;99.90
11140;DHT22;5624;49.388;11.350;2022-10-31T00:24:36;10.80;99.90
11140;DHT22;5624;49.388;11.350;2022-10-31T00:27:02;10.90;99.90
11140;DHT22;5624;49.388;11.350;2022-10-31T00:29:27;10.90;99.90
11140;DHT22;5624;49.388;11.350;2022-10-31T00:31:53;10.90;99.90
11140;DHT22;5624;49.388;11.350;2022-10-31T00:34:19;10.90;99.90
11140;DHT22;5624;49.388;11.350;2022-10-31T00:36:44;10.90;99.90
11140;DHT22;5624;49.388;11.350;2022-10-31T00:39:10;10.80;99.90
11140;DHT22;5624;49.388;11.350;2022-10-31T00:41:35;10.70;99.90
11140;DHT22;5624;49.388;11.350;2022-10-31T00:44:01;10.70;99.90
11140;DHT22;5624;49.388;11.350;2022-10-31T00:46:26;10.60;99.90
11140;DHT22;5624;49.388;11.350;2022-10-31T00:48:52;10.50;99.90
11140;DHT22;5624;49.388;11.350;2022-10-31T00:51:18;10.40;99.90
11140;DHT22;5624;49.388;11.350;2022-10-31T00:53:44;10.30;99.90
11140;DHT22;5624;49.388;11.350;2022-10-31T00:56:09;10.20;99.90
11140;DHT22;5624;49.388;11.350;2022-10-31T00:58:35;10.30;99.90
11140;DHT22;5624;49.388;11.350;2022-10-31T01:01:00;10.30;99.90
11140;DHT22;5624;49.388;11.350;2022-10-31T01:03:28;10.30;99.90
11140;DHT22;5624;49.388;11.350;2022-10-31T01:06:00;10.30;99.90
11140;DHT22;5624;49.388;11.350;2022-10-31T01:08:27;10.20;99.90
11140;DHT22;5624;49.388;11.350;2022-10-31T01:11:14;10.20;99.90
11140;DHT22;5624;49.388;11.350;2022-10-31T01:13:40;10.20;99.90
11140;DHT22;5624;49.388;11.350;2022-10-31T01:16:07;10.10;99.90
11140;DHT22;5624;49.388;11.350;2022-10-31T01:18:34;10.00;99.90
11140;DHT22;5624;49.388;11.350;2022-10-31T01:21:12;10.00;99.90
11140;DHT22;5624;49.388;11.350;2022-10-31T01:23:38;9.90;99.90
11140;DHT22;5624;49.388;11.350;2022-10-31T01:26:12;9.90;99.90
11140;DHT22;5624;49.388;11.350;2022-10-31T01:28:49;9.80;99.90
11140;DHT22;5624;49.388;11.350;2022-10-31T01:31:17;9.80;99.90
11140;DHT22;5624;49.388;11.350;2022-10-31T01:33:43;9.80;99.90
11140;DHT22;5624;49.388;11.350;2022-10-31T01:36:24;9.70;99.90
11140;DHT22;5624;49.388;11.350;2022-10-31T01:38:52;9.70;99.90
11140;DHT22;5624;49.388;11.350;2022-10-31T01:41:21;9.70;99.90
11140;DHT22;5624;49.388;11.350;2022-10-31T01:43:56;9.70;99.90
11140;DHT22;5624;49.388;11.350;2022-10-31T01:46:30;9.80;99.90
11140;DHT22;5624;49.388;11.350;2022-10-31T01:49:00;9.90;99.90
11140;DHT22;5624;49.388;11.350;2022-10-31T01:51:29;9.90;99.90
11140;DHT22;5624;49.388;11.350;2022-10-31T01:54:02;9.90;99.90
11140;DHT22;5624;49.388;11.350;2022-10-31T01:56:30;9.90;99.90
11140;DHT22;5624;49.388;11.350;2022-10-31T01:58:58;9.90;99.90
11140;DHT22;5624;49.388;11.350;2022-10-31T02:01:24;9.90;99.90
11140;DHT22;5624;49.388;11.350;2022-10-31T02:03:51;10.00;99.90
11140;DHT22;5624;49.388;11.350;2022-10-31T02:06:37;10.10;99.90
11140;DHT22;5624;49.388;11.350;2022-10-31T02:09:05;10.10;99.90
11140;DHT22;5624;49.388;11.350;2022-10-31T02:11:32;10.10;99.90
11140;DHT22;5624;49.388;11.350;2022-10-31T02:14:02;10.10;99.90
11140;DHT22;5624;49.388;11.350;2022-10-31T02:16:27;10.10;99.90
11140;DHT22;5624;49.388;11.350;2022-10-31T02:18:53;10.20;99.90
11140;DHT22;5624;49.388;11.350;2022-10-31T02:24:17;10.20;99.90
11140;DHT22;5624;49.388;11.350;2022-10-31T02:27:07;10.10;99.90
11140;DHT22;5624;49.388;11.350;2022-10-31T02:30:02;10.10;99.90
11140;DHT22;5624;49.388;11.350;2022-10-31T02:33:07;10.10;99.90
11140;DHT22;5624;49.388;11.350;2022-10-31T02:41:32;10.30;99.90
11140;DHT22;5624;49.388;11.350;2022-10-31T02:44:10;10.30;99.90
11140;DHT22;5624;49.388;11.350;2022-10-31T02:46:48;10.40;99.90
11140;DHT22;5624;49.388;11.350;2022-10-31T02:51:44;10.60;99.90
11140;DHT22;5624;49.388;11.350;2022-10-31T02:54:23;10.60;99.90
11140;DHT22;5624;49.388;11.350;2022-10-31T02:56:51;10.70;99.90
11140;DHT22;5624;49.388;11.350;2022-10-31T02:59:19;10.70;99.90
11140;DHT22;5624;49.388;11.350;2022-10-31T03:07:07;10.70;99.90
11140;DHT22;5624;49.388;11.350;2022-10-31T03:12:39;10.60;99.90
11140;DHT22;5624;49.388;11.350;2022-10-31T03:15:21;10.60;99.90
11140;DHT22;5624;49.388;11.350;2022-10-31T03:20:35;10.60;99.90
11140;DHT22;5624;49.388;11.350;2022-10-31T03:23:02;10.60;99.90
11140;DHT22;5624;49.388;11.350;2022-10-31T03:25:31;10.50;99.90
11140;DHT22;5624;49.388;11.350;2022-10-31T03:27:59;10.40;99.90
11140;DHT22;5624;49.388;11.350;2022-10-31T03:30:27;10.30;99.90
11140;DHT22;5624;49.388;11.350;2022-10-31T03:32:54;10.20;99.90
11140;DHT22;5624;49.388;11.350;2022-10-31T03:35:23;10.20;99.90
11140;DHT22;5624;49.388;11.350;2022-10-31T03:37:51;10.30;99.90
11140;DHT22;5624;49.388;11.350;2022-10-31T03:40:19;10.40;99.90
11140;DHT22;5624;49.388;11.350;2022-10-31T03:42:53;10.40;99.90
11140;DHT22;5624;49.388;11.350;2022-10-31T03:45:25;10.50;99.90
11140;DHT22;5624;49.388;11.350;2022-10-31T03:47:52;10.40;99.90
11140;DHT22;5624;49.388;11.350;2022-10-31T03:50:19;10.40;99.90
11140;DHT22;5624;49.388;11.350;2022-10-31T03:55:20;10.40;99.90
11140;DHT22;5624;49.388;11.350;2022-10-31T04:00:21;10.30;99.90
11140;DHT22;5624;49.388;11.350;2022-10-31T04:02:58;10.30;99.90
11140;DHT22;5624;49.388;11.350;2022-10-31T04:05:25;10.30;99.90
11140;DHT22;5624;49.388;11.350;2022-10-31T04:07:54;10.30;99.90
11140;DHT22;5624;49.388;11.350;2022-10-31T04:10:22;10.30;99.90
11140;DHT22;5624;49.388;11.350;2022-10-31T04:12:54;10.20;99.90
11140;DHT22;5624;49.388;11.350;2022-10-31T04:15:22;10.10;99.90
11140;DHT22;5624;49.388;11.350;2022-10-31T04:17:50;10.00;99.90
11140;DHT22;5624;49.388;11.350;2022-10-31T04:20:18;9.90;99.90
11140;DHT22;5624;49.388;11.350;2022-10-31T04:22:43;9.80;99.90
11140;DHT22;5624;49.388;11.350;2022-10-31T04:25:09;9.80;99.90
11140;DHT22;5624;49.388;11.350;2022-10-31T04:27:35;9.90;99.90
11140;DHT22;5624;49.388;11.350;2022-10-31T04:30:00;9.80;99.90
11140;DHT22;5624;49.388;11.350;2022-10-31T04:32:26;9.80;99.90
11140;DHT22;5624;49.388;11.350;2022-10-31T04:34:52;9.80;99.90
11140;DHT22;5624;49.388;11.350;2022-10-31T04:37:17;9.80;99.90
11140;DHT22;5624;49.388;11.350;2022-10-31T04:39:43;9.80;99.90
11140;DHT22;5624;49.388;11.350;2022-10-31T04:42:08;9.70;99.90
11140;DHT22;5624;49.388;11.350;2022-10-31T04:44:34;9.70;99.90
11140;DHT22;5624;49.388;11.350;2022-10-31T04:47:00;9.60;99.90
11140;DHT22;5624;49.388;11.350;2022-10-31T04:49:25;9.60;99.90
11140;DHT22;5624;49.388;11.350;2022-10-31T04:51:51;9.60;99.90
11140;DHT22;5624;49.388;11.350;2022-10-31T04:54:16;9.50;99.90
11140;DHT22;5624;49.388;11.350;2022-10-31T04:56:42;9.50;99.90
11140;DHT22;5624;49.388;11.350;2022-10-31T04:59:08;9.40;99.90
11140;DHT22;5624;49.388;11.350;2022-10-31T05:01:33;9.40;99.90
11140;DHT22;5624;49.388;11.350;2022-10-31T05:03:59;9.40;99.90
11140;DHT22;5624;49.388;11.350;2022-10-31T05:06:24;9.50;99.90
11140;DHT22;5624;49.388;11.350;2022-10-31T05:08:50;9.50;99.90
11140;DHT22;5624;49.388;11.350;2022-10-31T05:11:15;9.60;99.90
11140;DHT22;5624;49.388;11.350;2022-10-31T05:13:41;9.70;99.90
11140;DHT22;5624;49.388;11.350;2022-10-31T05:16:07;9.70;99.90
11140;DHT22;5624;49.388;11.350;2022-10-31T05:18:32;9.70;99.90
11140;DHT22;5624;49.388;11.350;2022-10-31T05:20:58;9.70;99.90
11140;DHT22;5624;49.388;11.350;2022-10-31T05:23:23;9.80;99.90
11140;DHT22;5624;49.388;11.350;2022-10-31T05:25:49;9.70;99.90
11140;DHT22;5624;49.388;11.350;2022-10-31T05:28:15;9.60;99.90
11140;DHT22;5624;49.388;11.350;2022-10-31T05:30:40;9.50;99.90
11140;DHT22;5624;49.388;11.350;2022-10-31T05:33:06;9.40;99.90
11140;DHT22;5624;49.388;11.350;2022-10-31T05:35:32;9.30;99.90
11140;DHT22;5624;49.388;11.350;2022-10-31T05:37:59;9.20;99.90
11140;DHT22;5624;49.388;11.350;2022-10-31T05:40:26;9.10;99.90
11140;DHT22;5624;49.388;11.350;2022-10-31T05:42:53;9.10;99.90
11140;DHT22;5624;49.388;11.350;2022-10-31T05:45:20;9.00;99.90
11140;DHT22;5624;49.388;11.350;2022-10-31T05:47:59;9.10;99.90
11140;DHT22;5624;49.388;11.350;2022-10-31T05:50:27;9.00;99.90
11140;DHT22;5624;49.388;11.350;2022-10-31T05:52:57;9.00;99.90
11140;DHT22;5624;49.388;11.350;2022-10-31T05:55:23;9.00;99.90
11140;DHT22;5624;49.388;11.350;2022-10-31T05:57:51;9.00;99.90
11140;DHT22;5624;49.388;11.350;2022-10-31T06:00:17;9.00;99.90
11140;DHT22;5624;49.388;11.350;2022-10-31T06:02:43;8.90;99.90
11140;DHT22;5624;49.388;11.350;2022-10-31T06:05:09;8.90;99.90
11140;DHT22;5624;49.388;11.350;2022-10-31T06:07:35;8.90;99.90
11140;DHT22;5624;49.388;11.350;2022-10-31T06:10:02;8.90;99.90
11140;DHT22;5624;49.388;11.350;2022-10-31T06:12:28;8.90;99.90
11140;DHT22;5624;49.388;11.350;2022-10-31T06:14:53;9.00;99.90
11140;DHT22;5624;49.388;11.350;2022-10-31T06:17:19;8.90;99.90
11140;DHT22;5624;49.388;11.350;2022-10-31T06:19:44;8.90;99.90
11140;DHT22;5624;49.388;11.350;2022-10-31T06:22:10;9.00;99.90
11140;DHT22;5624;49.388;11.350;2022-10-31T06:24:37;9.00;99.90
11140;DHT22;5624;49.388;11.350;2022-10-31T06:27:03;9.10;99.90
11140;DHT22;5624;49.388;11.350;2022-10-31T06:29:29;9.10;99.90
11140;DHT22;5624;49.388;11.350;2022-10-31T06:31:55;9.20;99.90
11140;DHT22;5624;49.388;11.350;2022-10-31T06:34:20;9.20;99.90
11140;DHT22;5624;49.388;11.350;2022-10-31T06:36:47;9.30;99.90
11140;DHT22;5624;49.388;11.350;2022-10-31T06:39:13;9.40;99.90
11140;DHT22;5624;49.388;11.350;2022-10-31T06:41:38;9.40;99.90
11140;DHT22;5624;49.388;11.350;2022-10-31T06:44:06;9.50;99.90
11140;DHT22;5624;49.388;11.350;2022-10-31T06:46:31;9.60;99.90
11140;DHT22;5624;49.388;11.350;2022-10-31T06:48:57;9.80;99.90
11140;DHT22;5624;49.388;11.350;2022-10-31T06:51:23;9.90;99.90
11140;DHT22;5624;49.388;11.350;2022-10-31T06:53:48;10.00;99.90
11140;DHT22;5624;49.388;11.350;2022-10-31T06:56:14;10.30;99.90
11140;DHT22;5624;49.388;11.350;2022-10-31T06:58:39;10.50;99.90
11140;DHT22;5624;49.388;11.350;2022-10-31T07:01:06;10.70;99.90
11140;DHT22;5624;49.388;11.350;2022-10-31T07:03:31;10.90;99.90
11140;DHT22;5624;49.388;11.350;2022-10-31T07:05:57;11.00;99.90
11140;DHT22;5624;49.388;11.350;2022-10-31T07:08:23;11.30;99.20
11140;DHT22;5624;49.388;11.350;2022-10-31T07:10:56;11.40;98.00
11140;DHT22;5624;49.388;11.350;2022-10-31T07:13:22;11.40;97.40
11140;DHT22;5624;49.388;11.350;2022-10-31T07:15:52;11.50;96.80
11140;DHT22;5624;49.388;11.350;2022-10-31T07:18:19;11.60;97.30
11140;DHT22;5624;49.388;11.350;2022-10-31T07:20:44;11.70;96.90
11140;DHT22;5624;49.388;11.350;2022-10-31T07:23:11;11.80;96.70
11140;DHT22;5624;49.388;11.350;2022-10-31T07:25:38;12.00;96.80
11140;DHT22;5624;49.388;11.350;2022-10-31T07:28:04;12.10;96.40
11140;DHT22;5624;49.388;11.350;2022-10-31T07:30:29;12.30;95.20
11140;DHT22;5624;49.388;11.350;2022-10-31T07:32:55;12.50;93.70
11140;DHT22;5624;49.388;11.350;2022-10-31T07:35:23;12.60;92.60
11140;DHT22;5624;49.388;11.350;2022-10-31T07:37:49;12.90;91.50
11140;DHT22;5624;49.388;11.350;2022-10-31T07:40:16;13.10;90.80
11140;DHT22;5624;49.388;11.350;2022-10-31T07:42:44;13.30;89.40
11140;DHT22;5624;49.388;11.350;2022-10-31T07:45:14;13.70;87.50
11140;DHT22;5624;49.388;11.350;2022-10-31T07:50:09;14.60;83.30
11140;DHT22;5624;49.388;11.350;2022-10-31T07:52:35;14.70;82.00
11140;DHT22;5624;49.388;11.350;2022-10-31T07:55:01;14.90;80.50
11140;DHT22;5624;49.388;11.350;2022-10-31T07:57:26;15.10;79.50
11140;DHT22;5624;49.388;11.350;2022-10-31T07:59:52;15.20;78.90
11140;DHT22;5624;49.388;11.350;2022-10-31T08:02:18;15.60;78.90
11140;DHT22;5624;49.388;11.350;2022-10-31T08:04:43;16.20;77.80
11140;DHT22;5624;49.388;11.350;2022-10-31T08:07:09;16.40;74.90
11140;DHT22;5624;49.388;11.350;2022-10-31T08:09:35;16.70;75.10
11140;DHT22;5624;49.388;11.350;2022-10-31T08:12:00;17.30;73.00
11140;DHT22;5624;49.388;11.350;2022-10-31T08:14:27;17.70;72.10
11140;DHT22;5624;49.388;11.350;2022-10-31T08:16:53;18.20;69.70
11140;DHT22;5624;49.388;11.350;2022-10-31T08:19:19;18.50;67.00
11140;DHT22;5624;49.388;11.350;2022-10-31T08:21:45;19.00;68.10
11140;DHT22;5624;49.388;11.350;2022-10-31T08:24:11;19.50;66.80
11140;DHT22;5624;49.388;11.350;2022-10-31T08:26:37;19.90;63.20
11140;DHT22;5624;49.388;11.350;2022-10-31T08:29:03;19.90;63.60
11140;DHT22;5624;49.388;11.350;2022-10-31T08:31:28;20.40;61.60
11140;DHT22;5624;49.388;11.350;2022-10-31T08:33:54;20.80;60.60
11140;DHT22;5624;49.388;11.350;2022-10-31T08:36:20;20.80;60.90
11140;DHT22;5624;49.388;11.350;2022-10-31T08:38:47;21.10;60.80
11140;DHT22;5624;49.388;11.350;2022-10-31T08:41:13;21.30;59.30
11140;DHT22;5624;49.388;11.350;2022-10-31T08:43:39;21.50;59.80
11140;DHT22;5624;49.388;11.350;2022-10-31T08:46:05;21.90;59.10
11140;DHT22;5624;49.388;11.350;2022-10-31T08:48:31;22.00;56.20
11140;DHT22;5624;49.388;11.350;2022-10-31T08:50:58;22.20;56.90
11140;DHT22;5624;49.388;11.350;2022-10-31T08:53:24;22.30;55.40
11140;DHT22;5624;49.388;11.350;2022-10-31T08:55:50;22.40;55.70
11140;DHT22;5624;49.388;11.350;2022-10-31T08:58:18;22.60;56.60
11140;DHT22;5624;49.388;11.350;2022-10-31T09:00:45;23.00;56.20
11140;DHT22;5624;49.388;11.350;2022-10-31T09:03:13;23.30;55.10
11140;DHT22;5624;49.388;11.350;2022-10-31T09:05:39;23.40;52.20
11140;DHT22;5624;49.388;11.350;2022-10-31T09:08:06;23.40;53.00
11140;DHT22;5624;49.388;11.350;2022-10-31T09:10:34;23.50;53.10
11140;DHT22;5624;49.388;11.350;2022-10-31T09:13:17;23.60;52.90
11140;DHT22;5624;49.388;11.350;2022-10-31T09:15:45;23.80;51.60
11140;DHT22;5624;49.388;11.350;2022-10-31T09:18:12;23.70;50.50
11140;DHT22;5624;49.388;11.350;2022-10-31T09:20:39;23.90;51.50
11140;DHT22;5624;49.388;11.350;2022-10-31T09:23:08;24.30;50.80
11140;DHT22;5624;49.388;11.350;2022-10-31T09:25:34;24.30;50.70
11140;DHT22;5624;49.388;11.350;2022-10-31T09:28:02;24.50;49.90
11140;DHT22;5624;49.388;11.350;2022-10-31T09:30:31;24.60;51.10
11140;DHT22;5624;49.388;11.350;2022-10-31T09:32:58;24.50;49.40
11140;DHT22;5624;49.388;11.350;2022-10-31T09:35:25;24.60;48.50
11140;DHT22;5624;49.388;11.350;2022-10-31T09:37:55;24.50;50.20
11140;DHT22;5624;49.388;11.350;2022-10-31T09:40:22;24.60;47.40
11140;DHT22;5624;49.388;11.350;2022-10-31T09:45:48;24.50;48.70
11140;DHT22;5624;49.388;11.350;2022-10-31T09:51:04;24.20;47.80
11140;DHT22;5624;49.388;11.350;2022-10-31T09:53:42;24.10;48.00
11140;DHT22;5624;49.388;11.350;2022-10-31T09:56:13;23.60;47.20
11140;DHT22;5624;49.388;11.350;2022-10-31T09:58:46;23.50;47.90
11140;DHT22;5624;49.388;11.350;2022-10-31T10:01:25;23.80;49.60
11140;DHT22;5624;49.388;11.350;2022-10-31T10:04:00;24.00;49.40
11140;DHT22;5624;49.388;11.350;2022-10-31T10:06:33;24.30;48.70
11140;DHT22;5624;49.388;11.350;2022-10-31T10:09:00;24.50;46.00
11140;DHT22;5624;49.388;11.350;2022-10-31T10:25:24;24.70;46.40
11140;DHT22;5624;49.388;11.350;2022-10-31T10:30:43;24.90;46.30
11140;DHT22;5624;49.388;11.350;2022-10-31T10:33:13;24.80;43.00
11140;DHT22;5624;49.388;11.350;2022-10-31T10:36:25;24.70;44.50
11140;DHT22;5624;49.388;11.350;2022-10-31T10:38:52;24.70;41.90
11140;DHT22;5624;49.388;11.350;2022-10-31T10:41:21;24.60;42.70
11140;DHT22;5624;49.388;11.350;2022-10-31T10:43:49;24.30;40.50
11140;DHT22;5624;49.388;11.350;2022-10-31T10:49:22;23.90;41.70
11140;DHT22;5624;49.388;11.350;2022-10-31T10:59:51;23.50;41.40
11140;DHT22;5624;49.388;11.350;2022-10-31T11:02:26;23.20;39.90
11140;DHT22;5624;49.388;11.350;2022-10-31T11:04:57;22.90;42.00
11140;DHT22;5624;49.388;11.350;2022-10-31T11:07:23;22.90;42.40
11140;DHT22;5624;49.388;11.350;2022-10-31T11:09:49;22.90;40.60
11140;DHT22;5624;49.388;11.350;2022-10-31T11:12:20;22.50;41.60
11140;DHT22;5624;49.388;11.350;2022-10-31T11:14:51;22.50;41.50
11140;DHT22;5624;49.388;11.350;2022-10-31T11:17:36;22.30;41.60
11140;DHT22;5624;49.388;11.350;2022-10-31T11:20:30;22.40;40.20
11140;DHT22;5624;49.388;11.350;2022-10-31T11:23:17;22.30;41.80
11140;DHT22;5624;49.388;11.350;2022-10-31T11:26:05;22.30;43.50
11140;DHT22;5624;49.388;11.350;2022-10-31T11:28:32;22.30;42.90
11140;DHT22;5624;49.388;11.350;2022-10-31T11:31:05;22.30;43.20
11140;DHT22;5624;49.388;11.350;2022-10-31T11:33:53;22.20;43.40
11140;DHT22;5624;49.388;11.350;2022-10-31T11:36:30;22.00;44.60
11140;DHT22;5624;49.388;11.350;2022-10-31T11:38:57;22.00;45.10
11140;DHT22;5624;49.388;11.350;2022-10-31T11:41:28;22.10;43.10
11140;DHT22;5624;49.388;11.350;2022-10-31T11:43:59;22.10;43.00
11140;DHT22;5624;49.388;11.350;2022-10-31T11:49:06;21.90;44.20
11140;DHT22;5624;49.388;11.350;2022-10-31T11:51:37;21.70;44.80
11140;DHT22;5624;49.388;11.350;2022-10-31T11:54:04;21.90;44.40
11140;DHT22;5624;49.388;11.350;2022-10-31T11:56:40;21.90;44.90
11140;DHT22;5624;49.388;11.350;2022-10-31T11:59:18;21.80;45.90
11140;DHT22;5624;49.388;11.350;2022-10-31T12:01:48;21.90;44.60
11140;DHT22;5624;49.388;11.350;2022-10-31T12:04:14;22.00;43.70
11140;DHT22;5624;49.388;11.350;2022-10-31T12:06:43;21.90;44.10
11140;DHT22;5624;49.388;11.350;2022-10-31T12:09:28;21.90;45.20
11140;DHT22;5624;49.388;11.350;2022-10-31T12:17:31;22.20;44.40
11140;DHT22;5624;49.388;11.350;2022-10-31T12:33:59;22.00;42.10
11140;DHT22;5624;49.388;11.350;2022-10-31T12:42:06;22.00;42.20
11140;DHT22;5624;49.388;11.350;2022-10-31T12:52:32;21.70;45.40
11140;DHT22;5624;49.388;11.350;2022-10-31T12:58:10;21.70;43.80
11140;DHT22;5624;49.388;11.350;2022-10-31T13:00:38;21.60;44.50
11140;DHT22;5624;49.388;11.350;2022-10-31T13:06:02;21.30;44.90
11140;DHT22;5624;49.388;11.350;2022-10-31T13:08:39;21.30;43.90
11140;DHT22;5624;49.388;11.350;2022-10-31T13:11:34;21.00;44.10
11140;DHT22;5624;49.388;11.350;2022-10-31T13:14:11;20.90;45.40
11140;DHT22;5624;49.388;11.350;2022-10-31T13:16:44;20.80;44.90
11140;DHT22;5624;49.388;11.350;2022-10-31T13:19:38;20.80;45.80
11140;DHT22;5624;49.388;11.350;2022-10-31T13:22:21;20.80;45.30
11140;DHT22;5624;49.388;11.350;2022-10-31T13:24:59;20.70;45.60
11140;DHT22;5624;49.388;11.350;2022-10-31T13:30:27;20.50;46.40
11140;DHT22;5624;49.388;11.350;2022-10-31T13:35:42;20.20;47.10
11140;DHT22;5624;49.388;11.350;2022-10-31T13:38:23;20.10;46.90
11140;DHT22;5624;49.388;11.350;2022-10-31T13:46:34;20.00;48.20
11140;DHT22;5624;49.388;11.350;2022-10-31T13:49:00;19.90;48.60
11140;DHT22;5624;49.388;11.350;2022-10-31T13:51:32;19.80;48.40
11140;DHT22;5624;49.388;11.350;2022-10-31T13:54:19;19.70;49.60
11140;DHT22;5624;49.388;11.350;2022-10-31T13:56:49;19.80;48.90
11140;DHT22;5624;49.388;11.350;2022-10-31T13:59:21;19.70;48.80
11140;DHT22;5624;49.388;11.350;2022-10-31T14:01:59;19.60;49.10
11140;DHT22;5624;49.388;11.350;2022-10-31T14:04:50;19.70;49.00
11140;DHT22;5624;49.388;11.350;2022-10-31T14:07:20;19.80;49.40
11140;DHT22;5624;49.388;11.350;2022-10-31T14:09:57;19.70;49.20
11140;DHT22;5624;49.388;11.350;2022-10-31T14:14:54;19.80;49.30
11140;DHT22;5624;49.388;11.350;2022-10-31T14:17:25;19.80;49.40
11140;DHT22;5624;49.388;11.350;2022-10-31T14:22:37;19.80;50.00
11140;DHT22;5624;49.388;11.350;2022-10-31T14:27:51;19.60;49.70
11140;DHT22;5624;49.388;11.350;2022-10-31T14:30:21;19.50;50.40
11140;DHT22;5624;49.388;11.350;2022-10-31T14:33:14;19.50;50.80
11140;DHT22;5624;49.388;11.350;2022-10-31T14:36:10;19.50;51.50
11140;DHT22;5624;49.388;11.350;2022-10-31T14:38:54;19.40;51.00
11140;DHT22;5624;49.388;11.350;2022-10-31T14:41:45;19.30;50.90
11140;DHT22;5624;49.388;11.350;2022-10-31T14:53:01;18.80;53.60
11140;DHT22;5624;49.388;11.350;2022-10-31T14:55:29;18.60;54.70
11140;DHT22;5624;49.388;11.350;2022-10-31T14:58:05;18.40;55.50
11140;DHT22;5624;49.388;11.350;2022-10-31T15:00:33;18.40;55.00
11140;DHT22;5624;49.388;11.350;2022-10-31T15:05:55;18.30;54.60
11140;DHT22;5624;49.388;11.350;2022-10-31T15:08:39;18.30;54.90
11140;DHT22;5624;49.388;11.350;2022-10-31T15:11:13;18.20;55.30
11140;DHT22;5624;49.388;11.350;2022-10-31T15:13:50;18.10;56.40
11140;DHT22;5624;49.388;11.350;2022-10-31T15:16:22;18.00;56.50
11140;DHT22;5624;49.388;11.350;2022-10-31T15:19:04;17.90;56.40
11140;DHT22;5624;49.388;11.350;2022-10-31T15:21:31;17.80;57.10
11140;DHT22;5624;49.388;11.350;2022-10-31T15:23:59;17.80;57.30
11140;DHT22;5624;49.388;11.350;2022-10-31T15:26:38;17.70;58.00
11140;DHT22;5624;49.388;11.350;2022-10-31T15:29:15;17.60;58.60
11140;DHT22;5624;49.388;11.350;2022-10-31T15:31:53;17.50;58.80
11140;DHT22;5624;49.388;11.350;2022-10-31T15:34:24;17.50;59.00
11140;DHT22;5624;49.388;11.350;2022-10-31T15:36:51;17.40;59.10
11140;DHT22;5624;49.388;11.350;2022-10-31T15:39:18;17.30;59.40
11140;DHT22;5624;49.388;11.350;2022-10-31T15:44:19;17.20;59.80
11140;DHT22;5624;49.388;11.350;2022-10-31T15:46:56;17.20;59.70
11140;DHT22;5624;49.388;11.350;2022-10-31T15:49:29;17.10;59.60
11140;DHT22;5624;49.388;11.350;2022-10-31T15:51:57;17.10;60.10
11140;DHT22;5624;49.388;11.350;2022-10-31T15:54:28;17.00;60.50
11140;DHT22;5624;49.388;11.350;2022-10-31T15:56:54;16.90;60.50
11140;DHT22;5624;49.388;11.350;2022-10-31T15:59:22;16.90;60.90
11140;DHT22;5624;49.388;11.350;2022-10-31T16:02:01;16.80;61.20
11140;DHT22;5624;49.388;11.350;2022-10-31T16:04:27;16.80;61.20
11140;DHT22;5624;49.388;11.350;2022-10-31T16:07:23;16.80;61.20
11140;DHT22;5624;49.388;11.350;2022-10-31T16:09:57;16.70;61.80
11140;DHT22;5624;49.388;11.350;2022-10-31T16:12:28;16.70;62.00
11140;DHT22;5624;49.388;11.350;2022-10-31T16:14:55;16.70;62.20
11140;DHT22;5624;49.388;11.350;2022-10-31T16:17:25;16.80;62.10
11140;DHT22;5624;49.388;11.350;2022-10-31T16:20:04;16.70;62.50
11140;DHT22;5624;49.388;11.350;2022-10-31T16:22:32;16.60;62.70
11140;DHT22;5624;49.388;11.350;2022-10-31T16:25:10;16.60;63.10
11140;DHT22;5624;49.388;11.350;2022-10-31T16:27:37;16.40;63.90
11140;DHT22;5624;49.388;11.350;2022-10-31T16:32:58;16.30;64.70
11140;DHT22;5624;49.388;11.350;2022-10-31T16:35:42;16.30;65.10
11140;DHT22;5624;49.388;11.350;2022-10-31T16:38:08;16.40;65.10
11140;DHT22;5624;49.388;11.350;2022-10-31T16:40:35;16.40;64.90
11140;DHT22;5624;49.388;11.350;2022-10-31T16:43:03;16.30;65.20
11140;DHT22;5624;49.388;11.350;2022-10-31T16:45:30;16.30;65.30
11140;DHT22;5624;49.388;11.350;2022-10-31T16:48:08;16.20;65.70
11140;DHT22;5624;49.388;11.350;2022-10-31T16:50:37;16.20;65.60
11140;DHT22;5624;49.388;11.350;2022-10-31T16:53:03;16.10;66.10
11140;DHT22;5624;49.388;11.350;2022-10-31T16:55:31;16.00;66.60
11140;DHT22;5624;49.388;11.350;2022-10-31T16:58:00;15.90;66.80
11140;DHT22;5624;49.388;11.350;2022-10-31T17:00:27;15.70;67.40
11140;DHT22;5624;49.388;11.350;2022-10-31T17:02:54;15.60;67.90
11140;DHT22;5624;49.388;11.350;2022-10-31T17:05:22;15.50;68.40
11140;DHT22;5624;49.388;11.350;2022-10-31T17:07:57;15.30;69.40
11140;DHT22;5624;49.388;11.350;2022-10-31T17:10:23;15.10;70.40
11140;DHT22;5624;49.388;11.350;2022-10-31T17:12:49;14.80;71.50
11140;DHT22;5624;49.388;11.350;2022-10-31T17:15:21;14.60;72.60
11140;DHT22;5624;49.388;11.350;2022-10-31T17:17:48;14.50;73.50
11140;DHT22;5624;49.388;11.350;2022-10-31T17:22:48;14.10;75.10
11140;DHT22;5624;49.388;11.350;2022-10-31T17:25:16;14.00;76.00
11140;DHT22;5624;49.388;11.350;2022-10-31T17:27:43;13.90;76.40
11140;DHT22;5624;49.388;11.350;2022-10-31T17:30:11;13.70;77.20
11140;DHT22;5624;49.388;11.350;2022-10-31T17:32:37;13.60;78.00
11140;DHT22;5624;49.388;11.350;2022-10-31T17:35:03;13.40;78.60
11140;DHT22;5624;49.388;11.350;2022-10-31T17:37:29;13.30;79.30
11140;DHT22;5624;49.388;11.350;2022-10-31T17:39:54;13.10;80.00
11140;DHT22;5624;49.388;11.350;2022-10-31T17:42:20;13.00;80.50
11140;DHT22;5624;49.388;11.350;2022-10-31T17:44:46;12.90;81.00
11140;DHT22;5624;49.388;11.350;2022-10-31T17:47:11;12.90;81.80
11140;DHT22;5624;49.388;11.350;2022-10-31T17:49:37;12.80;81.80
11140;DHT22;5624;49.388;11.350;2022-10-31T17:52:03;12.70;81.90
11140;DHT22;5624;49.388;11.350;2022-10-31T17:54:28;12.70;82.50
11140;DHT22;5624;49.388;11.350;2022-10-31T17:56:54;12.60;82.90
11140;DHT22;5624;49.388;11.350;2022-10-31T17:59:19;12.50;83.20
11140;DHT22;5624;49.388;11.350;2022-10-31T18:01:45;12.40;84.00
11140;DHT22;5624;49.388;11.350;2022-10-31T18:04:11;12.40;84.40
11140;DHT22;5624;49.388;11.350;2022-10-31T18:06:36;12.30;84.60
11140;DHT22;5624;49.388;11.350;2022-10-31T18:09:03;12.20;85.00
11140;DHT22;5624;49.388;11.350;2022-10-31T18:11:30;12.10;85.20
11140;DHT22;5624;49.388;11.350;2022-10-31T18:13:57;12.10;85.60